Strona główna
METAR-TAF:

METAR-TAF

Lotnisko :

Port lotniczy Bintulu

Bintulu, Malezja

Szerokość geograficzna: 03-12N, Długość geograficzna: 113-02E, wysokość: 2 m

Aktualna obserwacja pogody

Raport powstał 17 minut temu, godzina 04:00 UTC
Wiatr 3 kt z kierunków zmiennych
Temperatura 30°C
Wilgotność 79%
Ciśnienie 1010 hPa
Widzialność 10 km lub więcej
Mało chmury na wysokości 1500 ft, Cumulonimbus.
Rozproszone chmury na wysokości 1600 ft
Przerywane chmury na wysokości 15000 ft

METAR: WBGB 110400Z VRB03KT 9999 FEW015CB SCT016 BKN150 30/26 Q1010

czas: 12:17 (04:17 UTC)

Prognoza

Raport powstał 5 godziny i 17 minut temu, godzina 23:00 UTC
Prognoza ważna od 11 godzina 00 UTC do 12 godzina 00 UTC
Wiatr 3 kt z kierunków zmiennych
Widzialność 10 km lub więcej
Rozproszone chmury na wysokości 1600 ft
Przejściowo
od 11 godzina 07 UTC do 11 godzina 11 UTC
Widzialność: 4000 m
Mało chmury na wysokości 1500 ft, Cumulonimbus.
burza, deszcz

TAF: WBGB 102300Z 1100/1200 VRB03KT 9999 SCT016 TEMPO 1107/1111 4000 TSRA FEW015CB

Obserwacja i prognoza pogody dla ponad 4000 lotnisk (raport METAR i TAF).

Dostępne stacje oznaczono żółtymi i czerwonymi punktami na mapie.

Najedź kursorem aby zobaczyć nazwę stacji.

Kliknij aby zobaczyć obserwacje i prognozy pogody.

Aby zmienić mapę: kliknij na zielony przycisk z czarnym krzyżykiem, aby powiększyć; na zielony przycisk z myślnikiem, aby pomniejszyć; na zielone strzałki, aby przejść do map sąsiednich.


METAR-TAF: